Stations météo

réclame
Mon MeteoGroup
Glen Ogle, Grande-Bretagne (3148): Température de l'air & dewpoint: 15.08.2018 05:00:00 - 21.08.2018 05:00:00 (BST)Glen Ogle, Grande-Bretagne (3148): Vitesse du vent & gusts: 15.08.2018 05:00:00 - 21.08.2018 05:00:00 (BST)Glen Ogle, Grande-Bretagne (3148): Direction du vent: 15.08.2018 05:00:00 - 21.08.2018 05:00:00 (BST)
Date & Time tt [°C] td [°C] ff [km/h] ff [knt] fx [km/h] fx [knt] dd
21.08.2018 05:00:00 - - - - - - -
21.08.2018 04:00:00 10,2 10,2 15 8 - - ESE
21.08.2018 03:00:00 10,4 10,4 15 8 - - ESE
21.08.2018 02:00:00 10,6 10,6 11 6 - - SE
21.08.2018 01:00:00 11,3 10,6 13 7 - - SSE
21.08.2018 00:00:00 11,1 10,9 15 8 - - SSE
20.08.2018 23:00:00 11,8 10,6 22 12 - - SE
20.08.2018 22:00:00 12,1 10,2 16 9 - - SE
20.08.2018 21:00:00 12,3 10,2 11 6 - - SSE
20.08.2018 20:00:00 12,1 10,1 13 7 - - SE
20.08.2018 19:00:00 12,7 8,4 4 2 - - SSE
20.08.2018 18:00:00 12,7 7,2 8 4 - - NW
20.08.2018 17:00:00 12,7 6,4 5 3 - - WSW
20.08.2018 16:00:00 14,0 5,4 5 3 - - W
20.08.2018 15:00:00 12,9 5,4 5 3 - - S
20.08.2018 14:00:00 13,4 5,8 9 5 - - SSW
20.08.2018 13:00:00 13,2 3,1 5 3 - - SSW
20.08.2018 12:00:00 11,9 1,1 8 4 - - NW
20.08.2018 11:00:00 11,1 0,5 8 4 - - NNW
20.08.2018 10:00:00 9,8 -1,3 5 3 - - NW
20.08.2018 09:00:00 9,0 1,1 4 2 - - NW
20.08.2018 08:00:00 8,4 8,4 4 2 - - N
20.08.2018 07:00:00 7,9 7,9 5 3 - - NNW
20.08.2018 06:00:00 7,8 7,8 5 3 - - NNW
20.08.2018 05:00:00 8,6 8,6 2 1 - - NNW
20.08.2018 04:00:00 8,3 8,3 8 4 - - SE
20.08.2018 03:00:00 8,5 8,5 5 3 - - NNW
20.08.2018 02:00:00 9,1 9,1 5 3 - - NNW
20.08.2018 01:00:00 9,9 9,8 5 3 - - SE
20.08.2018 00:00:00 10,0 9,9 5 3 - - ESE
19.08.2018 23:00:00 10,4 9,6 5 3 - - SE
19.08.2018 22:00:00 10,4 9,5 5 3 - - WSW
19.08.2018 21:00:00 11,2 9,8 8 4 - - SE
19.08.2018 20:00:00 12,2 8,6 9 5 - - NW
19.08.2018 19:00:00 12,2 9,2 16 9 - - WNW
19.08.2018 18:00:00 12,6 9,8 26 14 - - W
19.08.2018 17:00:00 13,6 10,4 21 11 - - W
19.08.2018 16:00:00 13,5 11,1 8 4 - - W
19.08.2018 15:00:00 12,8 12,3 16 9 - - W
19.08.2018 14:00:00 13,3 11,4 11 6 - - WNW
19.08.2018 13:00:00 13,6 10,3 4 2 - - WSW
19.08.2018 12:00:00 13,1 8,9 5 3 - - WNW
19.08.2018 11:00:00 12,9 8,7 4 2 - - SW
19.08.2018 10:00:00 12,8 10,0 8 4 - - NE
19.08.2018 09:00:00 12,1 11,7 5 3 - - NE
19.08.2018 08:00:00 10,9 10,8 21 11 - - NE
19.08.2018 07:00:00 10,7 10,7 11 6 - - ENE
19.08.2018 06:00:00 10,9 10,9 4 2 - - ENE
19.08.2018 05:00:00 11,2 11,2 8 4 - - ENE
19.08.2018 04:00:00 10,8 10,8 4 2 - - NNW
19.08.2018 03:00:00 10,8 10,8 4 2 - - N
19.08.2018 02:00:00 10,7 10,7 4 2 - - S
19.08.2018 01:00:00 10,7 10,7 11 6 - - SSE
19.08.2018 00:00:00 10,3 10,3 16 9 - - SE
18.08.2018 23:00:00 10,3 10,2 8 4 - - S
18.08.2018 22:00:00 9,6 9,6 15 8 - - WNW
18.08.2018 21:00:00 9,5 9,5 9 5 - - W
18.08.2018 20:00:00 9,2 9,2 21 11 - - W
18.08.2018 19:00:00 9,4 9,3 26 14 - - W
18.08.2018 18:00:00 9,5 9,3 24 13 - - W
18.08.2018 17:00:00 10,0 9,3 31 17 - - W
18.08.2018 16:00:00 10,1 9,6 29 16 46 25 W
18.08.2018 15:00:00 9,6 8,9 28 15 - - W
18.08.2018 14:00:00 9,5 7,6 26 14 46 25 W
18.08.2018 13:00:00 9,8 8,4 28 15 55 30 WSW
18.08.2018 12:00:00 9,1 8,5 26 14 65 35 W
18.08.2018 11:00:00 10,4 6,8 34 18 67 36 W
18.08.2018 10:00:00 10,7 6,9 41 22 74 40 WSW
18.08.2018 09:00:00 11,0 5,5 41 22 70 38 WSW
18.08.2018 08:00:00 11,1 6,9 46 25 72 39 WSW
18.08.2018 07:00:00 11,1 6,6 46 25 70 38 WSW
18.08.2018 06:00:00 11,0 6,8 42 23 67 36 WSW
18.08.2018 05:00:00 10,4 9,6 44 24 74 40 WSW
18.08.2018 04:00:00 11,3 7,4 46 25 76 41 WSW
18.08.2018 03:00:00 11,0 7,9 37 20 67 36 W
18.08.2018 02:00:00 11,1 7,9 44 24 65 35 WSW
18.08.2018 01:00:00 11,2 7,8 44 24 65 35 WSW
18.08.2018 00:00:00 10,8 7,6 48 26 72 39 W
17.08.2018 23:00:00 11,1 8,1 46 25 76 41 WSW
17.08.2018 22:00:00 10,5 8,1 42 23 85 46 W
17.08.2018 21:00:00 11,1 8,7 57 31 76 41 W
17.08.2018 20:00:00 11,1 11,0 39 21 67 36 W
17.08.2018 19:00:00 12,7 11,3 41 22 55 30 WSW
17.08.2018 18:00:00 12,0 11,1 35 19 59 32 SW
17.08.2018 17:00:00 11,3 10,8 37 20 67 36 SSW
17.08.2018 16:00:00 10,3 10,3 42 23 70 38 S
17.08.2018 15:00:00 9,9 9,9 46 25 72 39 S
17.08.2018 14:00:00 9,4 9,3 50 27 78 42 S
17.08.2018 13:00:00 9,1 9,0 44 24 67 36 S
17.08.2018 12:00:00 8,7 8,6 44 24 67 36 S
17.08.2018 11:00:00 8,5 8,3 39 21 54 29 S
17.08.2018 10:00:00 8,0 7,9 37 20 50 27 S
17.08.2018 09:00:00 7,9 7,1 22 12 - - S
17.08.2018 08:00:00 8,3 6,7 16 9 - - WSW
17.08.2018 07:00:00 7,5 7,4 29 16 55 30 W
17.08.2018 06:00:00 8,0 6,0 39 21 59 32 W
17.08.2018 05:00:00 8,5 7,2 39 21 59 32 W
17.08.2018 04:00:00 8,4 7,2 28 15 50 27 W
17.08.2018 03:00:00 7,9 7,9 34 18 50 27 W
17.08.2018 02:00:00 8,3 7,7 37 20 50 27 W
17.08.2018 01:00:00 8,2 7,7 28 15 48 26 WSW
17.08.2018 00:00:00 8,2 7,6 29 16 48 26 W
16.08.2018 23:00:00 8,6 7,2 37 20 57 31 W
16.08.2018 22:00:00 8,6 7,7 26 14 54 29 W
16.08.2018 21:00:00 8,6 7,6 39 21 54 29 W
16.08.2018 20:00:00 9,7 6,6 39 21 54 29 W
16.08.2018 19:00:00 10,1 6,7 37 20 48 26 W
16.08.2018 18:00:00 10,4 6,1 31 17 50 27 W
16.08.2018 17:00:00 10,3 7,0 34 18 50 27 W
16.08.2018 16:00:00 11,0 5,3 26 14 - - SW
16.08.2018 15:00:00 9,7 6,3 24 13 - - SW
16.08.2018 14:00:00 10,0 7,0 28 15 - - SW
16.08.2018 13:00:00 9,7 7,4 28 15 - - SSW
16.08.2018 12:00:00 10,1 7,1 21 11 50 27 SSW
16.08.2018 11:00:00 9,6 7,2 28 15 46 25 SW
16.08.2018 10:00:00 8,8 7,1 29 16 - - SSW
16.08.2018 09:00:00 8,8 6,6 26 14 - - SW
16.08.2018 08:00:00 8,4 7,2 26 14 46 25 SW
16.08.2018 07:00:00 8,6 6,8 26 14 - - SW
16.08.2018 06:00:00 8,4 7,1 31 17 - - SSW
16.08.2018 05:00:00 8,5 6,7 26 14 - - SSW
16.08.2018 04:00:00 8,2 6,2 18 10 - - WSW
16.08.2018 03:00:00 8,0 6,8 24 13 - - W
16.08.2018 02:00:00 8,0 6,1 28 15 - - W
16.08.2018 01:00:00 8,9 8,7 26 14 54 29 WSW
16.08.2018 00:00:00 10,2 9,9 28 15 54 29 SSW
15.08.2018 23:00:00 10,7 9,8 31 17 55 30 SSW
15.08.2018 22:00:00 10,7 9,2 26 14 55 30 SSW
15.08.2018 21:00:00 11,6 8,2 34 18 59 32 SSW
15.08.2018 20:00:00 11,6 8,1 31 17 55 30 SW
15.08.2018 19:00:00 11,8 7,6 34 18 55 30 WSW
15.08.2018 18:00:00 11,5 7,8 29 16 54 29 S
15.08.2018 17:00:00 11,5 8,4 29 16 50 27 SW
15.08.2018 16:00:00 12,1 8,2 37 20 55 30 SW
15.08.2018 15:00:00 12,2 9,3 22 12 - - WSW
15.08.2018 14:00:00 12,6 8,8 35 19 54 29 SSW
15.08.2018 13:00:00 12,7 8,8 37 20 52 28 SSW
15.08.2018 12:00:00 12,2 9,5 31 17 50 27 SW
15.08.2018 11:00:00 11,1 10,8 28 15 - - W
15.08.2018 10:00:00 12,1 11,6 18 10 - - WSW
15.08.2018 09:00:00 12,1 11,1 24 13 - - W
15.08.2018 08:00:00 12,1 11,9 24 13 48 26 W
15.08.2018 07:00:00 13,4 11,8 28 15 - - SW
15.08.2018 06:00:00 13,0 12,8 22 12 52 28 SSW
15.08.2018 05:00:00 13,3 12,9 34 18 50 27 S

tt = Température de l'air
td = dewpoint
ff = Vitesse du vent
fx = gusts
dd = Direction du vent

stations d'obs. à proximité